Time;durP1;ratioP1;P1;durP2;ratioP2;P2;SDS_P1;SDS_P2;PMS_P1;PMS_P2;Temp;Humidity;BMP_temperature;BMP_pressure;BME280_temperature;BME280_humidity;BME280_pressure;Samples;Min_cycle;Max_cycle;Signal;HPM_P1;HPM_P2
2023/11/09 00:00:30;;;;;;;10.00;5.63;;;2.30;99.90;;;;;;5017050;28;20045;-65
2023/11/09 00:03:02;;;;;;;8.48;6.07;;;2.40;99.90;;;;;;5029624;28;20087;-64
2023/11/09 00:05:29;;;;;;;11.50;6.20;;;2.30;99.90;;;;;;5019102;28;20504;-64
2023/11/09 00:08:01;;;;;;;9.40;6.32;;;2.40;99.90;;;;;;5035960;28;20064;-64
2023/11/09 00:10:33;;;;;;;10.05;5.20;;;2.30;99.90;;;;;;5036401;28;20501;-65
2023/11/09 00:13:05;;;;;;;7.07;5.47;;;2.30;99.90;;;;;;5036854;28;20521;-64
2023/11/09 00:15:39;;;;;;;6.85;4.93;;;2.30;99.90;;;;;;5039128;28;20047;-65
2023/11/09 00:18:06;;;;;;;7.30;5.13;;;2.30;99.90;;;;;;5021997;28;20051;-65
2023/11/09 00:20:38;;;;;;;9.90;5.18;;;2.20;99.90;;;;;;5040629;28;20092;-64
2023/11/09 00:23:09;;;;;;;7.90;5.03;;;2.20;99.90;;;;;;5031236;28;20064;-65
2023/11/09 00:25:41;;;;;;;9.75;6.25;;;2.20;99.90;;;;;;5029123;28;20044;-64
2023/11/09 00:28:14;;;;;;;10.45;6.38;;;2.20;99.90;;;;;;5002626;28;20053;-65
2023/11/09 00:30:42;;;;;;;8.13;4.70;;;2.20;99.90;;;;;;5014013;28;20061;-65
2023/11/09 00:33:13;;;;;;;4.93;3.40;;;2.20;99.90;;;;;;5013786;28;20414;-64
2023/11/09 00:35:46;;;;;;;5.43;3.47;;;2.10;99.90;;;;;;5012156;28;20053;-64
2023/11/09 00:38:19;;;;;;;4.20;2.92;;;2.10;99.90;;;;;;5002531;28;20049;-64
2023/11/09 00:40:51;;;;;;;4.57;2.70;;;2.10;99.90;;;;;;5019236;28;20046;-64
2023/11/09 00:43:24;;;;;;;2.95;2.17;;;2.10;99.90;;;;;;5018308;28;20061;-65
2023/11/09 00:45:56;;;;;;;4.40;1.87;;;2.00;99.90;;;;;;5019555;28;20543;-65
2023/11/09 00:48:28;;;;;;;3.72;2.45;;;2.10;99.90;;;;;;5003179;28;20283;-64
2023/11/09 00:50:55;;;;;;;5.60;3.03;;;2.00;99.90;;;;;;5004685;28;20048;-65
2023/11/09 00:53:27;;;;;;;8.40;4.15;;;2.00;99.90;;;;;;5020868;28;20049;-64
2023/11/09 00:55:59;;;;;;;8.57;4.85;;;2.00;99.90;;;;;;5018566;28;20096;-65
2023/11/09 00:58:32;;;;;;;19.45;8.27;;;2.00;99.90;;;;;;5028962;28;20041;-64
2023/11/09 01:01:04;;;;;;;14.48;6.05;;;2.00;99.90;;;;;;5027742;28;20041;-64
2023/11/09 01:03:31;;;;;;;8.30;3.88;;;2.00;99.90;;;;;;5019718;28;20031;-65
2023/11/09 01:06:07;;;;;;;6.50;3.63;;;2.00;99.90;;;;;;5025084;28;20089;-65
2023/11/09 01:08:38;;;;;;;7.88;4.13;;;2.00;99.90;;;;;;5035412;28;20397;-65
2023/11/09 01:11:10;;;;;;;4.82;3.42;;;2.10;99.90;;;;;;5022951;28;20561;-64
2023/11/09 01:13:42;;;;;;;11.20;5.70;;;2.10;99.90;;;;;;5012375;28;20043;-64
2023/11/09 01:16:14;;;;;;;10.43;5.35;;;2.10;99.90;;;;;;5013516;28;20064;-64
2023/11/09 01:18:49;;;;;;;9.00;4.68;;;2.10;99.90;;;;;;5021715;28;20383;-65
2023/11/09 01:21:16;;;;;;;6.95;3.97;;;2.10;99.90;;;;;;5017950;28;20046;-65
2023/11/09 01:23:48;;;;;;;4.72;3.45;;;2.10;99.90;;;;;;5015305;28;20038;-64
2023/11/09 01:26:20;;;;;;;6.75;5.13;;;2.00;99.90;;;;;;5019318;28;20505;-64
2023/11/09 01:28:52;;;;;;;9.43;4.97;;;2.00;99.90;;;;;;5025396;28;20056;-65
2023/11/09 01:31:24;;;;;;;5.45;4.40;;;2.00;99.90;;;;;;5022496;28;20044;-64
2023/11/09 01:33:57;;;;;;;8.45;5.35;;;1.90;99.90;;;;;;5029764;28;20516;-65
2023/11/09 01:36:29;;;;;;;11.50;5.82;;;1.90;99.90;;;;;;5009706;28;20557;-64
2023/11/09 01:39:01;;;;;;;9.02;5.20;;;1.90;99.90;;;;;;5001746;28;20418;-65
2023/11/09 01:41:28;;;;;;;7.88;4.35;;;1.80;99.90;;;;;;5026774;28;20057;-64
2023/11/09 01:44:01;;;;;;;4.38;2.60;;;1.80;99.90;;;;;;5016643;28;20041;-64
2023/11/09 01:46:34;;;;;;;;;;;1.80;99.90;;;;;;5023901;28;20033;-65
2023/11/09 01:49:01;;;;;;;2.90;1.80;;;1.80;99.90;;;;;;5038411;28;19932;-65
2023/11/09 01:51:28;;;;;;;2.35;1.60;;;1.90;99.90;;;;;;5020681;28;20523;-65
2023/11/09 01:54:00;;;;;;;2.88;2.28;;;2.00;99.90;;;;;;5037036;28;20520;-64
2023/11/09 01:56:33;;;;;;;4.90;2.72;;;2.00;99.90;;;;;;5035418;28;20132;-64
2023/11/09 01:59:05;;;;;;;3.25;1.83;;;2.10;99.90;;;;;;5020772;28;20300;-64
2023/11/09 02:01:39;;;;;;;2.25;1.42;;;2.10;99.90;;;;;;5018358;28;20040;-65
2023/11/09 02:04:11;;;;;;;3.85;1.67;;;2.20;99.90;;;;;;5034994;28;20049;-64
2023/11/09 02:06:42;;;;;;;2.33;1.48;;;2.20;99.90;;;;;;5029367;28;20561;-65
2023/11/09 02:09:14;;;;;;;1.92;1.33;;;2.20;99.90;;;;;;5031331;28;20056;-65
2023/11/09 02:11:42;;;;;;;4.93;2.33;;;2.20;99.90;;;;;;5027046;28;20052;-64
2023/11/09 02:14:09;;;;;;;5.47;3.15;;;2.20;99.90;;;;;;5036029;28;20041;-65
2023/11/09 02:16:42;;;;;;;5.53;3.40;;;2.20;99.90;;;;;;5020862;28;20047;-64
2023/11/09 02:19:10;;;;;;;6.43;3.58;;;2.10;99.90;;;;;;5023519;28;20037;-65
2023/11/09 02:21:45;;;;;;;7.97;3.90;;;2.10;99.90;;;;;;5015954;28;20048;-64
2023/11/09 02:24:21;;;;;;;5.88;4.28;;;2.00;99.90;;;;;;5043282;28;20045;-64
2023/11/09 02:26:57;;;;;;;6.03;3.65;;;2.00;99.90;;;;;;5023809;28;20052;-65
2023/11/09 02:29:25;;;;;;;6.07;3.95;;;1.90;99.90;;;;;;5037194;28;20057;-65
2023/11/09 02:31:57;;;;;;;6.30;3.75;;;1.90;99.90;;;;;;5019052;28;20053;-64
2023/11/09 02:34:31;;;;;;;7.30;3.42;;;1.90;99.90;;;;;;5018480;28;20069;-64
2023/11/09 02:37:07;;;;;;;5.82;4.35;;;1.80;99.90;;;;;;5026210;28;20037;-65
2023/11/09 02:39:39;;;;;;;6.25;3.35;;;1.80;99.90;;;;;;4999632;28;20042;-65
2023/11/09 02:42:11;;;;;;;4.53;3.22;;;1.80;99.90;;;;;;5029553;28;20048;-64
2023/11/09 02:44:39;;;;;;;5.82;3.45;;;1.80;99.90;;;;;;5017659;28;20037;-64
2023/11/09 02:47:11;;;;;;;5.33;3.57;;;1.80;99.90;;;;;;5006104;28;20464;-64
2023/11/09 02:49:42;;;;;;;4.95;3.30;;;1.80;99.90;;;;;;5021524;28;20049;-65
2023/11/09 02:52:14;;;;;;;7.72;4.60;;;1.80;99.90;;;;;;5038842;28;20049;-65
2023/11/09 02:54:46;;;;;;;6.43;3.60;;;1.70;99.90;;;;;;5023448;28;20497;-65
2023/11/09 02:57:18;;;;;;;4.80;3.60;;;1.70;99.90;;;;;;5022763;28;20041;-65
2023/11/09 02:59:50;;;;;;;4.93;3.70;;;1.70;99.90;;;;;;5018656;28;20612;-65
2023/11/09 03:02:22;;;;;;;6.20;3.05;;;1.70;99.90;;;;;;5016877;28;20068;-64
2023/11/09 03:04:54;;;;;;;5.90;2.80;;;1.60;99.90;;;;;;5034478;28;20531;-64
2023/11/09 03:07:26;;;;;;;6.03;3.00;;;1.60;99.90;;;;;;5032252;28;20042;-64
2023/11/09 03:09:53;;;;;;;4.32;2.53;;;1.60;99.90;;;;;;5016358;28;20045;-65
2023/11/09 03:12:25;;;;;;;6.20;3.33;;;1.60;99.90;;;;;;5022592;28;20045;-64
2023/11/09 03:14:57;;;;;;;4.72;2.50;;;1.70;99.90;;;;;;5038698;28;20521;-64
2023/11/09 03:17:29;;;;;;;5.03;3.47;;;1.60;99.90;;;;;;5020090;28;20052;-65
2023/11/09 03:20:01;;;;;;;6.35;3.58;;;1.60;99.90;;;;;;5017715;28;20050;-64
2023/11/09 03:22:33;;;;;;;4.03;1.90;;;1.50;99.90;;;;;;4986854;28;20528;-64
2023/11/09 03:25:06;;;;;;;3.60;2.20;;;1.50;99.90;;;;;;5003413;28;20119;-64
2023/11/09 03:27:37;;;;;;;3.00;1.80;;;1.60;99.90;;;;;;5039889;28;20136;-64
2023/11/09 03:30:10;;;;;;;4.05;2.65;;;1.60;99.90;;;;;;5017588;28;20059;-65
2023/11/09 03:32:42;;;;;;;4.35;2.10;;;1.60;99.90;;;;;;5012834;28;20635;-65
2023/11/09 03:35:14;;;;;;;3.88;2.35;;;1.60;99.90;;;;;;5034374;28;20524;-64
2023/11/09 03:37:46;;;;;;;5.95;2.72;;;1.60;99.90;;;;;;5010657;28;20050;-65
2023/11/09 03:40:18;;;;;;;3.92;2.72;;;1.60;99.90;;;;;;5034357;28;20386;-65
2023/11/09 03:42:50;;;;;;;5.85;2.40;;;1.60;99.90;;;;;;5027544;28;20049;-65
2023/11/09 03:45:22;;;;;;;5.45;3.13;;;1.60;99.90;;;;;;5019083;28;20114;-65
2023/11/09 03:47:54;;;;;;;4.97;3.40;;;1.60;99.90;;;;;;5019470;28;20042;-65
2023/11/09 03:50:26;;;;;;;4.97;3.42;;;1.60;99.90;;;;;;5035062;28;21152;-66
2023/11/09 03:52:58;;;;;;;4.22;2.72;;;1.60;99.90;;;;;;5038112;28;20136;-65
2023/11/09 03:55:25;;;;;;;3.67;2.33;;;1.50;99.90;;;;;;5017351;28;20029;-65
2023/11/09 03:57:57;;;;;;;3.75;2.85;;;1.50;99.90;;;;;;5036810;28;20037;-64
2023/11/09 04:00:28;;;;;;;3.28;2.60;;;1.50;99.90;;;;;;5038941;28;20049;-65
2023/11/09 04:03:01;;;;;;;4.07;2.92;;;1.50;99.90;;;;;;5038215;28;20413;-64
2023/11/09 04:05:32;;;;;;;3.80;2.50;;;1.50;99.90;;;;;;5031547;28;20041;-64
2023/11/09 04:08:04;;;;;;;4.70;3.00;;;1.50;99.90;;;;;;5017755;28;20049;-65
2023/11/09 04:10:36;;;;;;;3.95;2.22;;;1.50;99.90;;;;;;5034426;28;20045;-64
2023/11/09 04:13:03;;;;;;;4.10;2.35;;;1.50;99.90;;;;;;5012791;28;20402;-65
2023/11/09 04:15:30;;;;;;;6.32;3.10;;;1.50;99.90;;;;;;5018323;28;20512;-64
2023/11/09 04:18:02;;;;;;;3.72;2.60;;;1.50;99.90;;;;;;5034786;28;20451;-65
2023/11/09 04:20:34;;;;;;;4.05;2.53;;;1.40;99.90;;;;;;5021853;28;20499;-66
2023/11/09 04:23:06;;;;;;;3.45;2.45;;;1.40;99.90;;;;;;5034182;28;20065;-64
2023/11/09 04:25:38;;;;;;;5.40;2.30;;;1.30;99.90;;;;;;5022185;28;20041;-64
2023/11/09 04:28:10;;;;;;;4.72;2.47;;;1.40;99.90;;;;;;5036668;28;20042;-65
2023/11/09 04:30:42;;;;;;;3.22;2.10;;;1.40;99.90;;;;;;5037573;28;20040;-65
2023/11/09 04:33:14;;;;;;;2.92;1.73;;;1.40;99.90;;;;;;5032961;28;20532;-64
2023/11/09 04:35:46;;;;;;;5.57;3.00;;;1.40;99.90;;;;;;5020607;28;20084;-65
2023/11/09 04:38:18;;;;;;;7.43;2.95;;;1.50;99.90;;;;;;4997334;28;20038;-67
2023/11/09 04:41:03;;;;;;;9.18;2.70;;;1.50;99.90;;;;;;5031662;28;20116;-65
2023/11/09 04:43:37;;;;;;;3.60;2.20;;;1.50;99.90;;;;;;5013793;28;20045;-65
2023/11/09 04:46:17;;;;;;;;;;;1.40;99.90;;;;;;5035429;28;20049;-65
2023/11/09 04:48:45;;;;;;;12.70;7.07;;;1.50;99.90;;;;;;5031092;28;19931;-64
2023/11/09 04:51:22;;;;;;;4.85;2.90;;;1.40;99.90;;;;;;5035038;28;20049;-64
2023/11/09 04:53:57;;;;;;;8.43;4.32;;;1.60;99.90;;;;;;5020106;28;20052;-64
2023/11/09 04:56:42;;;;;;;3.67;2.60;;;1.90;99.90;;;;;;5026510;28;20371;-64
2023/11/09 05:07:36;;;;;;;2.17;1.25;;;1.60;99.90;;;;;;5031801;28;20037;-65
2023/11/09 05:10:08;;;;;;;1.60;0.85;;;1.50;99.90;;;;;;5031920;28;20042;-66
2023/11/09 05:12:40;;;;;;;2.47;1.63;;;1.40;99.90;;;;;;5012949;28;20049;-65
2023/11/09 05:15:12;;;;;;;2.40;0.90;;;1.40;99.90;;;;;;5029296;28;20136;-65
2023/11/09 05:17:44;;;;;;;6.28;1.17;;;1.30;99.90;;;;;;5030351;28;20132;-66
2023/11/09 05:20:17;;;;;;;1.85;1.00;;;1.20;99.90;;;;;;5006612;28;20053;-64
2023/11/09 05:22:45;;;;;;;1.33;1.00;;;1.10;99.90;;;;;;5035569;28;20125;-64
2023/11/09 05:25:18;;;;;;;2.35;1.10;;;1.00;99.90;;;;;;5023421;28;20053;-65
2023/11/09 05:27:50;;;;;;;1.55;1.00;;;1.00;99.90;;;;;;5040384;28;20041;-64
2023/11/09 05:30:21;;;;;;;3.97;1.23;;;1.00;99.90;;;;;;5007306;28;20120;-64
2023/11/09 05:32:48;;;;;;;3.00;1.08;;;1.00;99.90;;;;;;5021350;28;20056;-65
2023/11/09 05:35:20;;;;;;;2.13;1.00;;;1.00;99.90;;;;;;5025417;28;21371;-66
2023/11/09 05:37:52;;;;;;;2.15;1.00;;;1.00;99.90;;;;;;5032729;28;20047;-65
2023/11/09 05:40:20;;;;;;;3.05;1.00;;;1.00;99.90;;;;;;5015275;28;20133;-65
2023/11/09 05:42:48;;;;;;;1.90;1.10;;;1.00;99.90;;;;;;5034348;28;20128;-65
2023/11/09 05:45:20;;;;;;;2.50;1.30;;;1.00;99.90;;;;;;5015662;28;20049;-65
2023/11/09 05:47:52;;;;;;;1.98;0.95;;;1.00;99.90;;;;;;5029085;28;20053;-65
2023/11/09 05:50:24;;;;;;;2.40;1.17;;;1.10;99.90;;;;;;5033183;28;20052;-65
2023/11/09 05:52:55;;;;;;;2.15;1.30;;;1.10;99.90;;;;;;5037496;28;20041;-64
2023/11/09 05:55:22;;;;;;;1.70;1.20;;;1.10;99.90;;;;;;5020133;28;20069;-64
2023/11/09 05:57:57;;;;;;;1.75;0.90;;;1.10;99.90;;;;;;5036435;28;20049;-65
2023/11/09 06:00:30;;;;;;;1.92;1.10;;;1.10;99.90;;;;;;5018861;28;20095;-64
2023/11/09 06:03:03;;;;;;;;;;;1.00;99.90;;;;;;5019890;28;20128;-65
2023/11/09 06:05:36;;;;;;;2.90;1.55;;;1.00;99.90;;;;;;5033342;28;19921;-66
2023/11/09 06:08:10;;;;;;;2.95;1.88;;;1.00;99.90;;;;;;5008064;28;20057;-65
2023/11/09 06:10:43;;;;;;;5.53;2.53;;;0.90;99.90;;;;;;5028890;28;20401;-64
2023/11/09 06:13:10;;;;;;;3.67;2.20;;;0.90;99.90;;;;;;5018453;28;20040;-64
2023/11/09 06:15:42;;;;;;;2.00;1.60;;;0.90;99.90;;;;;;5030858;28;20409;-64
2023/11/09 06:18:13;;;;;;;2.03;1.52;;;0.90;99.90;;;;;;5014950;28;20503;-65
2023/11/09 06:20:47;;;;;;;2.08;1.50;;;0.90;99.90;;;;;;5013892;28;20034;-64
2023/11/09 06:23:22;;;;;;;3.55;1.67;;;0.90;99.90;;;;;;5025179;28;20048;-65
2023/11/09 06:25:55;;;;;;;3.17;1.92;;;0.90;99.90;;;;;;5035972;28;20547;-65
2023/11/09 06:28:27;;;;;;;6.32;2.10;;;0.90;99.90;;;;;;5038110;28;20052;-65
2023/11/09 06:31:04;;;;;;;1.70;1.55;;;0.90;99.90;;;;;;5018750;28;20045;-65
2023/11/09 06:33:32;;;;;;;4.85;1.63;;;0.90;99.90;;;;;;5015010;28;20044;-65
2023/11/09 06:36:06;;;;;;;4.97;2.28;;;0.90;99.90;;;;;;5007600;28;20509;-65
2023/11/09 06:38:37;;;;;;;3.42;1.85;;;1.00;99.90;;;;;;5028246;28;20045;-65
2023/11/09 06:41:04;;;;;;;3.20;2.03;;;1.00;99.90;;;;;;5034813;28;20494;-65
2023/11/09 06:43:36;;;;;;;3.85;1.70;;;1.00;99.90;;;;;;5014378;28;20170;-65
2023/11/09 06:46:08;;;;;;;4.15;2.65;;;1.10;99.90;;;;;;5018974;28;20042;-65
2023/11/09 06:48:35;;;;;;;2.55;1.73;;;1.10;99.90;;;;;;5015745;28;20077;-64
2023/11/09 06:51:03;;;;;;;2.47;1.80;;;1.40;99.90;;;;;;5034783;28;20044;-65
2023/11/09 06:53:35;;;;;;;2.73;1.60;;;1.60;99.90;;;;;;5027412;28;20053;-65
2023/11/09 06:56:07;;;;;;;4.05;3.03;;;1.60;99.90;;;;;;5016792;28;20413;-65
2023/11/09 06:58:33;;;;;;;8.75;5.00;;;1.60;99.90;;;;;;5037486;28;20133;-65
2023/11/09 07:01:05;;;;;;;12.80;7.85;;;1.60;99.90;;;;;;5023737;28;20048;-65
2023/11/09 07:03:37;;;;;;;14.10;8.40;;;1.60;99.90;;;;;;5033553;28;20045;-66
2023/11/09 07:06:09;;;;;;;3.42;2.33;;;1.60;99.90;;;;;;5039477;28;20522;-64
2023/11/09 07:08:41;;;;;;;4.88;2.42;;;1.60;99.90;;;;;;5019029;28;20060;-65
2023/11/09 07:11:12;;;;;;;10.30;3.55;;;1.60;99.90;;;;;;5010693;28;20056;-65
2023/11/09 07:13:44;;;;;;;6.95;4.20;;;1.60;99.90;;;;;;5022879;28;20048;-65
2023/11/09 07:16:16;;;;;;;9.15;5.43;;;1.50;99.90;;;;;;5021344;28;20084;-64
2023/11/09 07:18:49;;;;;;;13.38;6.78;;;1.50;99.90;;;;;;5027266;28;20038;-64
2023/11/09 07:21:22;;;;;;;13.93;7.85;;;1.50;99.90;;;;;;5030119;28;20041;-64
2023/11/09 07:23:59;;;;;;;11.63;7.32;;;1.50;99.90;;;;;;5031438;28;20033;-65
2023/11/09 07:26:31;;;;;;;9.07;5.75;;;1.40;99.90;;;;;;5035887;28;20509;-65
2023/11/09 07:29:03;;;;;;;8.82;5.18;;;1.50;99.90;;;;;;5025638;28;20060;-65
2023/11/09 07:31:35;;;;;;;26.80;16.33;;;1.60;99.90;;;;;;5034285;28;20420;-66
2023/11/09 07:34:02;;;;;;;38.35;22.20;;;1.60;99.90;;;;;;5040825;28;20450;-65
2023/11/09 07:36:34;;;;;;;33.47;19.05;;;1.70;99.90;;;;;;5031596;28;20042;-66
2023/11/09 07:39:07;;;;;;;24.55;12.88;;;1.80;99.90;;;;;;5018052;28;20039;-65
2023/11/09 07:41:34;;;;;;;27.42;12.82;;;1.80;99.90;;;;;;5039524;28;20044;-65
2023/11/09 07:44:06;;;;;;;23.58;10.82;;;1.90;99.90;;;;;;5022896;28;20044;-64
2023/11/09 07:46:38;;;;;;;24.58;10.15;;;1.90;99.90;;;;;;5030551;28;20041;-65
2023/11/09 07:49:12;;;;;;;22.52;9.23;;;1.90;99.90;;;;;;5016424;28;20060;-66
2023/11/09 07:51:44;;;;;;;17.55;7.82;;;2.00;99.90;;;;;;5040529;28;20119;-68
2023/11/09 07:54:16;;;;;;;20.10;9.05;;;2.00;99.90;;;;;;5015348;28;20045;-65
2023/11/09 07:56:48;;;;;;;18.15;8.02;;;2.10;99.90;;;;;;5032155;28;20053;-64
2023/11/09 07:59:20;;;;;;;15.48;7.78;;;2.20;99.90;;;;;;5020339;28;20055;-65
2023/11/09 08:01:52;;;;;;;19.15;8.50;;;2.30;99.90;;;;;;5040094;28;20044;-65
2023/11/09 08:04:27;;;;;;;13.43;6.53;;;2.30;99.90;;;;;;5022657;28;20049;-65
2023/11/09 08:06:59;;;;;;;11.35;6.82;;;2.40;99.90;;;;;;5042090;28;20044;-65
2023/11/09 08:09:26;;;;;;;12.00;5.82;;;2.50;99.90;;;;;;5031858;28;20045;-65
2023/11/09 08:11:57;;;;;;;8.25;4.57;;;2.60;99.90;;;;;;5031265;28;20048;-64
2023/11/09 08:14:30;;;;;;;11.57;6.60;;;2.70;99.90;;;;;;5033780;28;20413;-64
2023/11/09 08:17:02;;;;;;;12.20;8.03;;;2.80;99.90;;;;;;5032621;28;20096;-65
2023/11/09 08:19:34;;;;;;;14.48;7.72;;;2.90;99.90;;;;;;5022898;28;20042;-65
2023/11/09 08:22:01;;;;;;;9.23;7.05;;;3.00;99.90;;;;;;5028721;28;20041;-65
2023/11/09 08:24:33;;;;;;;6.13;3.80;;;3.10;99.90;;;;;;5034856;28;20040;-66
2023/11/09 08:27:05;;;;;;;6.18;3.60;;;3.20;99.90;;;;;;5025489;28;20049;-65
2023/11/09 08:29:38;;;;;;;7.93;3.80;;;3.30;99.90;;;;;;5031629;28;20045;-65
2023/11/09 08:32:10;;;;;;;7.13;4.88;;;3.40;99.90;;;;;;5038988;28;20052;-64
2023/11/09 08:34:41;;;;;;;6.07;4.20;;;3.60;99.90;;;;;;5035739;28;20527;-65
2023/11/09 08:37:10;;;;;;;4.53;2.55;;;3.60;99.90;;;;;;5004708;28;20053;-65
2023/11/09 08:39:42;;;;;;;9.20;4.60;;;3.80;99.90;;;;;;5034075;28;20531;-65
2023/11/09 08:42:14;;;;;;;8.27;5.20;;;4.00;99.90;;;;;;5019849;28;20130;-65
2023/11/09 08:44:46;;;;;;;9.75;5.82;;;4.20;99.90;;;;;;5028478;28;20088;-65
2023/11/09 08:47:13;;;;;;;9.00;4.72;;;4.30;99.90;;;;;;5028894;28;20046;-64
2023/11/09 08:49:39;;;;;;;7.00;4.32;;;4.30;99.90;;;;;;5036642;28;20044;-65
2023/11/09 08:52:12;;;;;;;6.13;4.20;;;4.20;99.90;;;;;;5031877;28;20053;-65
2023/11/09 08:54:45;;;;;;;7.05;4.03;;;4.20;99.90;;;;;;5027008;28;20065;-65
2023/11/09 08:57:18;;;;;;;;;;;4.10;99.90;;;;;;5030714;28;20497;-65
2023/11/09 08:59:45;;;;;;;8.73;5.68;;;4.10;99.90;;;;;;5034124;28;19925;-64
2023/11/09 09:02:12;;;;;;;7.82;5.13;;;4.10;99.90;;;;;;5023312;28;20041;-65
2023/11/09 09:04:45;;;;;;;7.63;5.03;;;4.10;99.90;;;;;;5005529;28;20046;-65
2023/11/09 09:07:17;;;;;;;;;;;4.20;99.90;;;;;;5012228;28;20058;-65
2023/11/09 09:09:45;;;;;;;6.53;4.00;;;4.20;99.90;;;;;;5031828;28;19921;-65
2023/11/09 09:12:15;;;;;;;5.68;4.15;;;4.40;99.90;;;;;;5034003;28;20068;-65
2023/11/09 09:14:42;;;;;;;6.10;4.65;;;4.50;99.90;;;;;;5025876;28;20509;-65
2023/11/09 09:17:10;;;;;;;15.98;12.35;;;4.60;99.90;;;;;;5012877;28;20122;-65
2023/11/09 09:19:42;;;;;;;9.27;6.03;;;4.80;99.90;;;;;;5019057;28;20049;-64
2023/11/09 09:22:14;;;;;;;6.93;3.60;;;5.00;99.90;;;;;;5025701;28;20037;-65
2023/11/09 09:24:46;;;;;;;4.97;3.17;;;5.20;99.90;;;;;;5017356;28;20040;-65
2023/11/09 09:27:13;;;;;;;4.78;2.17;;;5.50;99.90;;;;;;5017182;28;20068;-65
2023/11/09 09:29:40;;;;;;;1.70;1.20;;;5.90;99.90;;;;;;5032796;28;20402;-65
2023/11/09 09:32:13;;;;;;;1.50;0.90;;;6.50;99.90;;;;;;5038959;28;20048;-65
2023/11/09 09:34:46;;;;;;;1.50;1.20;;;7.20;99.90;;;;;;5036072;28;20037;-65
2023/11/09 09:37:20;;;;;;;4.60;1.25;;;7.60;99.90;;;;;;5036534;28;20072;-65
2023/11/09 09:39:52;;;;;;;1.65;0.88;;;7.90;99.90;;;;;;5035306;28;21361;-65
2023/11/09 09:42:26;;;;;;;3.38;1.30;;;8.20;99.90;;;;;;5029595;28;20033;-65
2023/11/09 09:44:59;;;;;;;1.17;0.95;;;8.40;99.90;;;;;;5021788;28;20030;-64
2023/11/09 09:47:31;;;;;;;2.17;1.20;;;8.50;99.90;;;;;;5025853;28;20064;-64
2023/11/09 09:49:59;;;;;;;4.50;1.30;;;8.60;99.90;;;;;;5020303;28;20048;-65
2023/11/09 09:52:31;;;;;;;1.98;1.20;;;8.60;99.90;;;;;;5003530;28;20110;-65
2023/11/09 09:55:03;;;;;;;1.40;0.93;;;8.70;99.90;;;;;;5027790;28;20143;-65
2023/11/09 09:57:37;;;;;;;1.95;1.13;;;8.80;99.90;;;;;;5031022;28;20096;-65
2023/11/09 10:00:12;;;;;;;2.03;1.17;;;8.90;99.90;;;;;;5035912;28;20129;-65
2023/11/09 10:02:44;;;;;;;5.70;2.90;;;9.10;99.90;;;;;;5030669;28;20033;-65
2023/11/09 10:05:17;;;;;;;194.15;99.88;;;9.10;99.90;;;;;;5036824;28;20045;-65
2023/11/09 10:08:04;;;;;;;62.58;32.00;;;9.20;99.90;;;;;;5034448;28;20116;-65
2023/11/09 10:10:39;;;;;;;2.45;1.60;;;9.30;99.90;;;;;;5035897;28;20048;-65
2023/11/09 10:13:14;;;;;;;3.90;1.92;;;9.40;99.90;;;;;;5027770;28;20049;-65
2023/11/09 10:15:55;;;;;;;1.40;0.90;;;9.50;99.90;;;;;;5046335;28;20052;-65
2023/11/09 10:18:28;;;;;;;2.00;1.45;;;9.50;99.90;;;;;;5039325;28;20045;-65
2023/11/09 10:21:03;;;;;;;;;;;9.50;99.90;;;;;;5034728;28;20120;-65
2023/11/09 10:23:35;;;;;;;2.90;1.30;;;9.50;99.90;;;;;;5035665;28;19920;-64
2023/11/09 10:26:11;;;;;;;8.55;1.80;;;9.60;99.90;;;;;;5031109;28;20048;-65
2023/11/09 10:28:43;;;;;;;2.20;1.00;;;9.60;99.90;;;;;;5009114;28;20041;-65
2023/11/09 10:31:48;;;;;;;1.92;1.20;;;9.60;99.90;;;;;;5040788;28;20049;-65
2023/11/09 10:34:15;;;;;;;2.60;1.15;;;9.70;99.90;;;;;;4996843;28;20111;-65
2023/11/09 10:36:46;;;;;;;1.92;1.30;;;9.80;99.90;;;;;;5020758;28;20041;-65
2023/11/09 10:39:19;;;;;;;2.17;1.15;;;9.90;99.90;;;;;;5025642;28;20110;-65
2023/11/09 10:41:54;;;;;;;2.05;1.23;;;10.00;99.90;;;;;;5018135;28;20041;-65
2023/11/09 10:44:23;;;;;;;1.40;0.90;;;10.10;99.90;;;;;;5014777;28;20038;-65
2023/11/09 10:46:54;;;;;;;2.45;1.63;;;10.20;99.90;;;;;;5033674;28;20072;-65
2023/11/09 10:49:23;;;;;;;3.58;1.00;;;10.20;99.90;;;;;;5041416;28;20148;-65
2023/11/09 10:52:01;;;;;;;3.40;1.13;;;10.10;99.90;;;;;;5020923;28;20073;-65
2023/11/09 10:54:28;;;;;;;2.08;1.10;;;10.20;99.90;;;;;;5024382;28;20521;-65
2023/11/09 10:57:00;;;;;;;2.58;1.10;;;10.20;99.90;;;;;;5024202;28;20544;-65
2023/11/09 10:59:40;;;;;;;2.20;1.08;;;10.30;99.90;;;;;;5040057;28;20030;-65
2023/11/09 11:02:18;;;;;;;3.05;0.90;;;10.30;99.90;;;;;;5018443;28;20065;-65
2023/11/09 11:04:55;;;;;;;1.98;1.20;;;10.30;99.90;;;;;;5038389;28;20051;-65
2023/11/09 11:07:30;;;;;;;1.65;0.90;;;10.30;99.90;;;;;;5023883;28;20041;-65
2023/11/09 11:10:03;;;;;;;2.88;1.10;;;10.50;99.90;;;;;;5037275;28;20057;-65
2023/11/09 11:12:36;;;;;;;3.67;1.10;;;10.50;99.90;;;;;;5026966;28;20432;-65
2023/11/09 11:15:05;;;;;;;3.20;1.20;;;10.60;99.90;;;;;;5031372;28;20045;-65
2023/11/09 11:17:50;;;;;;;1.42;1.10;;;10.70;99.90;;;;;;5030941;28;20464;-65
2023/11/09 11:20:51;;;;;;;1.52;1.00;;;10.90;99.90;;;;;;5029345;28;20429;-64
2023/11/09 11:23:47;;;;;;;1.42;1.10;;;11.10;99.90;;;;;;5033990;28;20072;-65
2023/11/09 11:26:18;;;;;;;1.92;0.82;;;11.10;99.90;;;;;;5020918;28;20490;-65
2023/11/09 11:28:50;;;;;;;2.38;1.25;;;11.20;99.90;;;;;;5032830;28;20032;-65
2023/11/09 11:31:22;;;;;;;1.30;0.82;;;11.10;99.90;;;;;;5034040;28;20039;-65
2023/11/09 11:33:57;;;;;;;1.17;0.70;;;11.00;99.90;;;;;;5022766;28;20041;-64
2023/11/09 11:36:33;;;;;;;1.48;1.08;;;10.90;99.90;;;;;;5034696;28;20033;-65
2023/11/09 11:39:12;;;;;;;1.33;0.80;;;10.90;99.90;;;;;;5023766;28;20049;-65
2023/11/09 11:41:39;;;;;;;1.45;1.05;;;10.80;99.90;;;;;;5022408;28;20051;-65
2023/11/09 11:44:08;;;;;;;1.75;1.00;;;10.90;99.90;;;;;;5020838;28;20072;-64
2023/11/09 11:46:34;;;;;;;2.50;1.10;;;10.80;99.90;;;;;;5039987;28;20035;-64
2023/11/09 11:49:14;;;;;;;3.22;1.10;;;10.70;99.90;;;;;;5032251;28;20033;-65
2023/11/09 11:51:55;;;;;;;1.13;0.90;;;10.80;99.90;;;;;;5015059;28;20145;-65
2023/11/09 11:54:29;;;;;;;1.83;1.00;;;10.80;99.90;;;;;;5015601;28;20052;-65
2023/11/09 11:56:56;;;;;;;1.33;0.95;;;10.80;99.90;;;;;;5016246;28;20124;-64
2023/11/09 11:59:22;;;;;;;1.50;1.05;;;10.80;99.90;;;;;;5025550;28;20062;-65
2023/11/09 12:01:55;;;;;;;1.60;0.80;;;10.80;99.90;;;;;;5027965;28;20041;-65
2023/11/09 12:04:27;;;;;;;2.92;1.02;;;10.80;99.90;;;;;;5011328;28;20144;-65
2023/11/09 12:07:05;;;;;;;2.75;1.25;;;10.90;99.90;;;;;;5008328;28;20046;-65
2023/11/09 12:09:32;;;;;;;1.23;0.80;;;10.90;99.90;;;;;;5034463;28;20048;-65
2023/11/09 12:12:10;;;;;;;1.38;0.93;;;10.90;99.90;;;;;;5040765;28;20061;-65
2023/11/09 12:14:46;;;;;;;1.40;0.73;;;10.80;99.90;;;;;;5036647;28;20048;-65
2023/11/09 12:17:14;;;;;;;2.25;1.02;;;10.90;99.90;;;;;;5039286;28;20033;-65
2023/11/09 12:19:45;;;;;;;1.80;0.90;;;10.90;99.90;;;;;;5032594;28;20132;-65
2023/11/09 12:22:18;;;;;;;1.65;0.77;;;11.00;99.90;;;;;;5015874;28;20401;-65
2023/11/09 12:25:02;;;;;;;1.67;0.90;;;11.00;99.90;;;;;;5030276;28;20045;-64
2023/11/09 12:27:38;;;;;;;1.48;0.98;;;11.00;99.90;;;;;;5027466;28;20037;-64
2023/11/09 12:30:11;;;;;;;2.10;0.90;;;11.10;99.90;;;;;;5025327;28;20045;-65
2023/11/09 12:32:43;;;;;;;2.17;1.00;;;11.20;99.90;;;;;;5026599;28;20041;-65
2023/11/09 12:35:16;;;;;;;2.10;1.40;;;11.20;99.90;;;;;;5032933;28;20064;-65
2023/11/09 12:37:59;;;;;;;1.08;0.73;;;11.20;99.90;;;;;;5033899;28;20059;-65
2023/11/09 12:40:31;;;;;;;1.48;0.80;;;11.10;99.90;;;;;;5020730;28;20041;-65
2023/11/09 12:43:06;;;;;;;3.00;1.10;;;11.10;99.90;;;;;;5033244;28;20049;-65
2023/11/09 12:45:41;;;;;;;2.47;1.10;;;11.10;99.90;;;;;;5027246;28;20112;-65
2023/11/09 12:48:14;;;;;;;2.75;1.00;;;11.20;99.90;;;;;;5037765;28;20112;-65
2023/11/09 12:50:47;;;;;;;1.08;0.90;;;11.30;99.90;;;;;;5016658;28;20041;-65
2023/11/09 12:53:18;;;;;;;5.00;1.20;;;11.40;99.90;;;;;;5025700;28;20029;-65
2023/11/09 12:55:50;;;;;;;1.50;1.00;;;11.60;99.90;;;;;;5023443;28;20053;-65
2023/11/09 12:58:27;;;;;;;2.67;1.10;;;11.70;99.90;;;;;;5009022;28;20052;-64
2023/11/09 13:00:59;;;;;;;5.10;1.30;;;11.70;99.90;;;;;;5025923;28;20065;-65
2023/11/09 13:03:32;;;;;;;4.07;1.25;;;11.70;99.90;;;;;;5027477;28;20033;-66
2023/11/09 13:06:08;;;;;;;3.42;1.30;;;11.60;99.90;;;;;;5020293;28;20038;-66
2023/11/09 13:08:41;;;;;;;2.45;1.02;;;11.60;99.90;;;;;;5034713;28;20059;-65
2023/11/09 13:11:14;;;;;;;2.33;1.17;;;11.50;99.90;;;;;;5036040;28;20044;-65
2023/11/09 13:14:07;;;;;;;1.83;1.20;;;11.50;99.90;;;;;;5036824;28;20518;-65
2023/11/09 13:16:37;;;;;;;3.30;1.33;;;11.40;99.90;;;;;;5035419;28;20037;-65
2023/11/09 13:19:04;;;;;;;3.70;1.20;;;11.30;99.90;;;;;;5041005;28;20079;-65
2023/11/09 13:21:37;;;;;;;2.38;1.00;;;11.30;99.90;;;;;;5021220;28;20040;-65
2023/11/09 13:24:09;;;;;;;2.55;1.00;;;11.20;99.90;;;;;;5027484;28;20124;-65
2023/11/09 13:26:41;;;;;;;1.63;0.98;;;11.20;99.90;;;;;;5028292;28;20034;-65
2023/11/09 13:29:13;;;;;;;1.80;1.00;;;11.10;99.90;;;;;;5032339;28;20046;-65